createdAt,value
2023-05-08T00:00:40.654Z,15.60
2023-05-08T00:03:08.672Z,15.50
2023-05-08T00:05:36.468Z,15.50
2023-05-08T00:08:04.336Z,15.50
2023-05-08T00:10:31.935Z,15.40
2023-05-08T00:12:59.454Z,15.40
2023-05-08T00:15:27.192Z,15.40
2023-05-08T00:17:54.822Z,15.30
2023-05-08T00:20:22.568Z,15.30
2023-05-08T00:22:50.341Z,15.30
2023-05-08T00:25:18.118Z,15.20
2023-05-08T00:27:45.655Z,15.20
2023-05-08T00:30:13.644Z,15.20
2023-05-08T00:32:41.972Z,15.10
2023-05-08T00:35:09.749Z,15.10
2023-05-08T00:37:40.878Z,15.10
2023-05-08T00:40:10.045Z,15.10
2023-05-08T00:42:38.483Z,15.00
2023-05-08T00:45:06.820Z,15.00
2023-05-08T00:47:35.350Z,15.00
2023-05-08T00:50:03.332Z,14.90
2023-05-08T00:52:33.065Z,14.90
2023-05-08T00:55:02.798Z,14.90
2023-05-08T00:57:35.596Z,14.80
2023-05-08T01:00:05.524Z,14.80
2023-05-08T01:02:35.422Z,14.80
2023-05-08T01:05:03.979Z,14.70
2023-05-08T01:07:32.864Z,14.70
2023-05-08T01:10:00.798Z,14.70
2023-05-08T01:12:49.651Z,14.60
2023-05-08T01:15:44.823Z,14.60
2023-05-08T01:18:19.029Z,14.60
2023-05-08T01:21:01.167Z,14.60
2023-05-08T01:24:07.226Z,14.60
2023-05-08T01:26:53.347Z,14.50
2023-05-08T01:29:23.780Z,14.40
2023-05-08T01:32:30.111Z,14.40
2023-05-08T01:35:21.259Z,14.40
2023-05-08T01:37:55.964Z,14.40
2023-05-08T01:41:05.126Z,14.30
2023-05-08T01:43:48.213Z,14.30
2023-05-08T01:46:26.776Z,14.20
2023-05-08T01:49:13.578Z,14.20
2023-05-08T01:51:45.313Z,14.20
2023-05-08T01:54:19.935Z,14.20
2023-05-08T01:56:49.069Z,14.20
2023-05-08T01:59:20.955Z,14.20
2023-05-08T02:01:51.343Z,14.10
2023-05-08T02:04:19.953Z,14.10
2023-05-08T02:06:47.932Z,14.10
2023-05-08T02:09:16.868Z,14.10
2023-05-08T02:11:47.344Z,14.00
2023-05-08T02:14:21.749Z,14.00
2023-05-08T02:16:52.439Z,14.00
2023-05-08T02:19:21.876Z,14.00
2023-05-08T02:21:50.850Z,13.90
2023-05-08T02:24:19.179Z,13.90
2023-05-08T02:26:48.484Z,13.90
2023-05-08T02:29:17.229Z,13.80
2023-05-08T02:31:46.835Z,13.80
2023-05-08T02:34:15.990Z,13.80
2023-05-08T02:36:44.687Z,13.80
2023-05-08T02:39:15.445Z,13.70
2023-05-08T02:41:43.353Z,13.70
2023-05-08T02:44:11.961Z,13.70
2023-05-08T02:46:51.886Z,13.70
2023-05-08T02:49:33.385Z,13.60
2023-05-08T02:52:12.689Z,13.60
2023-05-08T02:54:51.635Z,13.60
2023-05-08T02:57:27.284Z,13.60
2023-05-08T03:00:07.857Z,13.50
2023-05-08T03:02:42.254Z,13.60
2023-05-08T03:05:31.735Z,13.50
2023-05-08T03:08:10.512Z,13.50
2023-05-08T03:10:40.409Z,13.40
2023-05-08T03:13:11.121Z,13.50
2023-05-08T03:15:58.728Z,13.40
2023-05-08T03:18:32.198Z,13.40
2023-05-08T03:21:00.559Z,13.40
2023-05-08T03:23:30.632Z,13.40
2023-05-08T03:25:59.261Z,13.40
2023-05-08T03:28:29.199Z,13.30
2023-05-08T03:31:00.393Z,13.30
2023-05-08T03:33:29.653Z,13.30
2023-05-08T03:35:59.839Z,13.20
2023-05-08T03:38:27.790Z,13.30
2023-05-08T03:40:55.417Z,13.20
2023-05-08T03:43:23.757Z,13.30
2023-05-08T03:45:51.660Z,13.20
2023-05-08T03:48:20.148Z,13.20
2023-05-08T03:50:47.958Z,13.20
2023-05-08T03:53:15.678Z,13.20
2023-05-08T03:55:43.620Z,13.20
2023-05-08T03:58:37.953Z,13.20
2023-05-08T04:01:32.189Z,13.20
2023-05-08T04:04:22.075Z,13.20
2023-05-08T04:06:51.475Z,13.10
2023-05-08T04:09:34.832Z,13.10
2023-05-08T04:12:32.467Z,13.10
2023-05-08T04:15:09.233Z,13.10
2023-05-08T04:17:43.773Z,13.10
2023-05-08T04:20:17.194Z,13.10
2023-05-08T04:22:48.330Z,13.10
2023-05-08T04:25:18.546Z,13.10
2023-05-08T04:27:51.085Z,13.10
2023-05-08T04:30:19.169Z,13.10
2023-05-08T04:32:47.653Z,13.10
2023-05-08T04:35:17.302Z,13.10
2023-05-08T04:37:47.189Z,13.10
2023-05-08T04:40:14.964Z,13.00
2023-05-08T04:42:43.643Z,13.10
2023-05-08T04:45:11.829Z,13.00
2023-05-08T04:47:40.369Z,13.00
2023-05-08T04:50:09.365Z,13.10
2023-05-08T04:52:37.493Z,13.10
2023-05-08T04:55:05.697Z,13.10
2023-05-08T04:57:36.107Z,13.10
2023-05-08T05:00:06.183Z,13.00
2023-05-08T05:02:38.311Z,13.00
2023-05-08T05:05:07.295Z,13.00
2023-05-08T05:07:35.154Z,13.10
2023-05-08T05:10:03.835Z,13.00
2023-05-08T05:12:33.392Z,13.10
2023-05-08T05:15:01.518Z,13.10
2023-05-08T05:17:33.487Z,13.10
2023-05-08T05:20:01.366Z,13.10
2023-05-08T05:22:29.561Z,13.10
2023-05-08T05:24:56.991Z,13.20
2023-05-08T05:27:26.475Z,13.20
2023-05-08T05:29:53.951Z,13.20
2023-05-08T05:32:21.451Z,13.20
2023-05-08T05:34:49.246Z,13.20
2023-05-08T05:37:16.856Z,13.20
2023-05-08T05:39:44.410Z,13.30
2023-05-08T05:42:12.477Z,13.30
2023-05-08T05:44:40.031Z,13.30
2023-05-08T05:47:10.469Z,13.40
2023-05-08T05:49:42.996Z,13.40
2023-05-08T05:52:11.939Z,13.40
2023-05-08T05:54:39.594Z,13.50
2023-05-08T05:57:07.684Z,13.50
2023-05-08T05:59:35.182Z,13.50
2023-05-08T06:02:03.506Z,13.50
2023-05-08T06:04:31.507Z,13.70
2023-05-08T06:06:59.033Z,13.70
2023-05-08T06:09:26.568Z,13.70
2023-05-08T06:11:53.976Z,13.80
2023-05-08T06:14:21.616Z,13.80
2023-05-08T06:16:49.470Z,13.90
2023-05-08T06:19:17.045Z,13.90
2023-05-08T06:21:44.562Z,14.00
2023-05-08T06:24:12.122Z,14.00
2023-05-08T06:26:39.835Z,14.10
2023-05-08T06:29:07.315Z,14.20
2023-05-08T06:31:35.500Z,14.20
2023-05-08T06:34:02.938Z,14.20
2023-05-08T06:36:30.745Z,14.30
2023-05-08T06:38:58.254Z,14.40
2023-05-08T06:41:26.236Z,14.40
2023-05-08T06:43:54.854Z,14.50
2023-05-08T06:46:22.304Z,14.50
2023-05-08T06:48:49.718Z,14.70
2023-05-08T06:51:17.267Z,14.70
2023-05-08T06:53:44.694Z,14.80
2023-05-08T06:56:12.399Z,14.80
2023-05-08T06:58:40.320Z,14.90
2023-05-08T07:01:08.411Z,15.00
2023-05-08T07:03:36.009Z,15.00
2023-05-08T07:06:03.840Z,15.00
2023-05-08T07:08:32.379Z,15.10
2023-05-08T07:10:59.832Z,15.10
2023-05-08T07:13:27.489Z,15.20
2023-05-08T07:15:55.948Z,15.20
2023-05-08T07:18:23.552Z,15.30
2023-05-08T07:20:51.624Z,15.30
2023-05-08T07:23:19.520Z,15.40
2023-05-08T07:25:47.313Z,15.50
2023-05-08T07:28:14.870Z,15.50
2023-05-08T07:30:42.440Z,15.60
2023-05-08T07:33:09.951Z,15.60
2023-05-08T07:35:41.277Z,15.70
2023-05-08T07:38:09.802Z,15.70
2023-05-08T07:40:37.575Z,15.70
2023-05-08T07:43:05.194Z,15.80
2023-05-08T07:45:32.837Z,15.80
2023-05-08T07:48:01.034Z,15.90
2023-05-08T07:50:28.672Z,15.90
2023-05-08T07:52:56.197Z,15.90
2023-05-08T07:55:23.909Z,15.90
2023-05-08T07:57:51.618Z,16.00
2023-05-08T08:00:19.361Z,16.00
2023-05-08T08:02:47.306Z,16.00
2023-05-08T08:05:15.299Z,16.10
2023-05-08T08:07:43.106Z,16.10
2023-05-08T08:10:11.090Z,16.10
2023-05-08T08:12:39.146Z,16.10
2023-05-08T08:15:07.093Z,16.10
2023-05-08T08:17:34.551Z,16.10
2023-05-08T08:20:02.048Z,16.10
2023-05-08T08:22:29.566Z,16.20
2023-05-08T08:24:57.225Z,16.20
2023-05-08T08:27:25.410Z,16.20
2023-05-08T08:30:04.493Z,16.20
2023-05-08T08:32:41.496Z,16.20
2023-05-08T08:35:09.608Z,16.30
2023-05-08T08:37:37.305Z,16.30
2023-05-08T08:40:05.695Z,16.40
2023-05-08T08:42:33.971Z,16.40
2023-05-08T08:45:03.322Z,16.40
2023-05-08T08:47:37.795Z,16.50
2023-05-08T08:50:07.942Z,16.50
2023-05-08T08:52:47.380Z,16.50
2023-05-08T08:55:18.681Z,16.50
2023-05-08T08:58:12.065Z,16.50
2023-05-08T09:00:40.384Z,16.50
2023-05-08T09:03:08.065Z,16.60
2023-05-08T09:05:36.452Z,16.60
2023-05-08T09:08:04.176Z,16.70
2023-05-08T09:10:31.672Z,16.70
2023-05-08T09:12:59.497Z,16.80
2023-05-08T09:15:27.172Z,16.80
2023-05-08T09:17:54.789Z,16.90
2023-05-08T09:20:23.329Z,16.90
2023-05-08T09:22:52.817Z,17.00
2023-05-08T09:25:20.460Z,17.10
2023-05-08T09:27:47.949Z,17.20
2023-05-08T09:30:15.558Z,17.20
2023-05-08T09:32:44.577Z,17.30
2023-05-08T09:35:13.211Z,17.40
2023-05-08T09:37:47.377Z,17.40
2023-05-08T09:40:21.708Z,17.50
2023-05-08T09:42:50.749Z,17.60
2023-05-08T09:45:31.988Z,17.60
2023-05-08T09:47:59.899Z,17.60
2023-05-08T09:50:27.810Z,17.70
2023-05-08T09:52:55.948Z,17.70
2023-05-08T09:55:23.612Z,17.70
2023-05-08T09:57:57.232Z,17.70
2023-05-08T10:00:26.580Z,17.70
2023-05-08T10:02:59.864Z,17.80
2023-05-08T10:05:32.957Z,17.80
2023-05-08T10:08:22.149Z,17.70
2023-05-08T10:10:50.315Z,17.70
2023-05-08T10:13:17.927Z,17.70
2023-05-08T10:15:45.791Z,17.70
2023-05-08T10:18:16.467Z,17.70
2023-05-08T10:20:45.706Z,17.80
2023-05-08T10:23:17.052Z,17.80
2023-05-08T10:25:54.769Z,17.80
2023-05-08T10:28:40.127Z,17.90
2023-05-08T10:31:09.602Z,17.90
2023-05-08T10:33:40.492Z,18.00
2023-05-08T10:36:10.085Z,18.00
2023-05-08T10:38:39.578Z,18.00
2023-05-08T10:41:07.540Z,18.10
2023-05-08T10:43:36.071Z,18.10
2023-05-08T10:46:15.010Z,18.20
2023-05-08T10:48:51.026Z,18.20
2023-05-08T10:51:35.437Z,18.30
2023-05-08T10:54:17.988Z,18.40
2023-05-08T10:56:45.347Z,18.40
2023-05-08T10:59:21.539Z,18.40
2023-05-08T11:01:49.926Z,18.40
2023-05-08T11:04:22.501Z,18.50
2023-05-08T11:06:53.125Z,18.60
2023-05-08T11:09:45.754Z,18.60
2023-05-08T11:12:27.826Z,18.70
2023-05-08T11:15:00.620Z,18.80
2023-05-08T11:17:28.717Z,18.80
2023-05-08T11:20:01.138Z,18.90
2023-05-08T11:22:30.959Z,18.90
2023-05-08T11:25:04.346Z,18.90
2023-05-08T11:27:50.217Z,19.00
2023-05-08T11:30:37.283Z,19.10
2023-05-08T11:33:05.127Z,19.10
2023-05-08T11:35:51.573Z,19.10
2023-05-08T11:38:21.812Z,19.20
2023-05-08T11:40:54.101Z,19.20
2023-05-08T11:43:37.790Z,19.10
2023-05-08T11:46:08.999Z,19.10
2023-05-08T11:48:36.672Z,19.00
2023-05-08T11:51:04.579Z,19.10
2023-05-08T11:53:32.970Z,19.00
2023-05-08T11:56:00.744Z,19.00
2023-05-08T11:58:28.404Z,19.00
2023-05-08T12:00:56.232Z,19.00
2023-05-08T12:03:27.604Z,18.90
2023-05-08T12:05:59.808Z,18.90
2023-05-08T12:08:27.538Z,18.80
2023-05-08T12:10:59.854Z,18.80
2023-05-08T12:13:30.330Z,18.70
2023-05-08T12:16:00.332Z,18.70
2023-05-08T12:18:29.414Z,18.70
2023-05-08T12:20:59.694Z,18.60
2023-05-08T12:23:32.221Z,18.50
2023-05-08T12:26:01.264Z,18.40
2023-05-08T12:28:29.809Z,18.40
2023-05-08T12:30:57.311Z,18.40
2023-05-08T12:33:25.756Z,18.40
2023-05-08T12:35:53.431Z,18.50
2023-05-08T12:38:28.318Z,18.40
2023-05-08T12:40:56.224Z,18.50
2023-05-08T12:43:32.049Z,18.50
2023-05-08T12:45:59.664Z,18.60
2023-05-08T12:48:28.734Z,18.50
2023-05-08T12:51:02.222Z,18.50
2023-05-08T12:53:31.780Z,18.50
2023-05-08T12:56:02.972Z,18.50
2023-05-08T12:58:35.497Z,18.50
2023-05-08T13:01:11.862Z,18.40
2023-05-08T13:03:40.652Z,18.40
2023-05-08T13:06:20.705Z,18.40
2023-05-08T13:08:57.537Z,18.40
2023-05-08T13:11:34.286Z,18.40
2023-05-08T13:14:02.511Z,18.40
2023-05-08T13:16:30.248Z,18.40
2023-05-08T13:18:57.934Z,18.40
2023-05-08T13:21:27.613Z,18.50
2023-05-08T13:23:56.757Z,18.50
2023-05-08T13:26:25.860Z,18.60
2023-05-08T13:28:56.155Z,18.60
2023-05-08T13:31:24.802Z,18.60
2023-05-08T13:33:52.609Z,18.70
2023-05-08T13:36:20.943Z,18.80
2023-05-08T13:38:48.616Z,18.80
2023-05-08T13:41:16.057Z,18.90
2023-05-08T13:43:43.777Z,19.00
2023-05-08T13:46:11.289Z,19.10
2023-05-08T13:48:38.811Z,19.30
2023-05-08T13:51:06.415Z,19.50
2023-05-08T13:53:33.885Z,19.70
2023-05-08T13:56:01.520Z,19.90
2023-05-08T13:58:29.223Z,20.20
2023-05-08T14:00:57.038Z,20.50
2023-05-08T14:03:25.113Z,20.70
2023-05-08T14:05:52.757Z,21.00
2023-05-08T14:08:20.351Z,21.20
2023-05-08T14:10:48.080Z,21.40
2023-05-08T14:13:15.793Z,21.50
2023-05-08T14:15:43.588Z,21.60
2023-05-08T14:18:11.320Z,21.70
2023-05-08T14:20:39.047Z,21.70
2023-05-08T14:23:06.565Z,21.70
2023-05-08T14:25:34.161Z,21.70
2023-05-08T14:28:01.834Z,21.70
2023-05-08T14:30:29.446Z,21.70
2023-05-08T14:32:57.079Z,21.60
2023-05-08T14:35:24.677Z,21.50
2023-05-08T14:37:52.251Z,21.30
2023-05-08T14:40:19.975Z,21.30
2023-05-08T14:42:47.656Z,21.20
2023-05-08T14:45:15.816Z,21.10
2023-05-08T14:47:43.692Z,21.00
2023-05-08T14:50:11.501Z,20.90
2023-05-08T14:52:39.143Z,20.70
2023-05-08T14:55:07.905Z,20.60
2023-05-08T14:57:35.496Z,20.50
2023-05-08T15:00:04.005Z,20.30
2023-05-08T15:02:31.725Z,20.20
2023-05-08T15:04:59.418Z,20.10
2023-05-08T15:07:26.969Z,20.00
2023-05-08T15:09:54.573Z,19.90
2023-05-08T15:12:22.282Z,19.70
2023-05-08T15:14:49.801Z,19.70
2023-05-08T15:17:17.613Z,19.50
2023-05-08T15:19:45.921Z,19.50
2023-05-08T15:22:14.604Z,19.40
2023-05-08T15:24:42.103Z,19.40
2023-05-08T15:27:10.061Z,19.30
2023-05-08T15:29:39.715Z,19.20
2023-05-08T15:32:07.333Z,19.20
2023-05-08T15:34:34.825Z,19.10
2023-05-08T15:37:02.378Z,19.00
2023-05-08T15:39:29.926Z,18.90
2023-05-08T15:41:57.501Z,18.80
2023-05-08T15:44:28.686Z,18.70
2023-05-08T15:47:01.856Z,18.60
2023-05-08T15:49:29.345Z,18.50
2023-05-08T15:51:57.435Z,18.50
2023-05-08T15:54:25.052Z,18.40
2023-05-08T15:56:52.696Z,18.30
2023-05-08T15:59:20.360Z,18.20
2023-05-08T16:01:48.017Z,18.20
2023-05-08T16:04:15.503Z,18.10
2023-05-08T16:06:43.456Z,18.00
2023-05-08T16:09:11.867Z,18.00
2023-05-08T16:11:39.503Z,17.90
2023-05-08T16:14:07.229Z,17.90
2023-05-08T16:16:34.763Z,17.80
2023-05-08T16:19:03.148Z,17.70
2023-05-08T16:21:31.423Z,17.60
2023-05-08T16:23:58.914Z,17.60
2023-05-08T16:26:26.418Z,17.50
2023-05-08T16:28:53.983Z,17.40
2023-05-08T16:31:21.586Z,17.40
2023-05-08T16:33:49.280Z,17.30
2023-05-08T16:36:16.773Z,17.30
2023-05-08T16:38:44.132Z,17.20
2023-05-08T16:41:12.811Z,17.20
2023-05-08T16:43:40.536Z,17.20
2023-05-08T16:46:08.345Z,17.10
2023-05-08T16:48:36.070Z,17.10
2023-05-08T16:51:03.716Z,17.00
2023-05-08T16:53:33.507Z,17.00
2023-05-08T16:56:01.601Z,17.00
2023-05-08T16:58:29.196Z,17.00
2023-05-08T17:00:56.855Z,16.90
2023-05-08T17:03:24.707Z,16.90
2023-05-08T17:05:52.418Z,16.80
2023-05-08T17:08:19.942Z,16.80
2023-05-08T17:10:47.444Z,16.80
2023-05-08T17:13:15.305Z,16.80
2023-05-08T17:15:43.002Z,16.80
2023-05-08T17:18:10.725Z,16.70
2023-05-08T17:20:40.932Z,16.70
2023-05-08T17:23:09.438Z,16.70
2023-05-08T17:25:37.118Z,16.60
2023-05-08T17:28:05.377Z,16.60
2023-05-08T17:30:33.019Z,16.60
2023-05-08T17:33:00.709Z,16.60
2023-05-08T17:35:28.485Z,16.60
2023-05-08T17:37:55.977Z,16.50
2023-05-08T17:40:23.694Z,16.50
2023-05-08T17:42:51.386Z,16.50
2023-05-08T17:45:19.059Z,16.50
2023-05-08T17:47:46.644Z,16.40
2023-05-08T17:50:14.390Z,16.30
2023-05-08T17:52:42.238Z,16.30
2023-05-08T17:55:10.183Z,16.30
2023-05-08T17:57:37.633Z,16.30
2023-05-08T18:00:08.676Z,16.30
2023-05-08T18:02:36.397Z,16.30
2023-05-08T18:05:04.106Z,16.30
2023-05-08T18:07:31.487Z,16.20
2023-05-08T18:09:58.841Z,16.30
2023-05-08T18:12:26.263Z,16.30
2023-05-08T18:14:53.683Z,16.30
2023-05-08T18:17:22.534Z,16.30
2023-05-08T18:19:50.228Z,16.30
2023-05-08T18:22:17.598Z,16.30
2023-05-08T18:24:45.685Z,16.20
2023-05-08T18:27:13.116Z,16.30
2023-05-08T18:29:40.749Z,16.30
2023-05-08T18:32:08.117Z,16.30
2023-05-08T18:34:35.496Z,16.30
2023-05-08T18:37:03.030Z,16.20
2023-05-08T18:39:30.585Z,16.20
2023-05-08T18:41:58.186Z,16.20
2023-05-08T18:44:25.679Z,16.10
2023-05-08T18:46:53.553Z,16.20
2023-05-08T18:49:21.371Z,16.20
2023-05-08T18:51:48.924Z,16.10
2023-05-08T18:54:16.625Z,16.10
2023-05-08T18:56:44.217Z,16.10
2023-05-08T18:59:11.581Z,16.10
2023-05-08T19:01:39.170Z,16.10
2023-05-08T19:04:06.729Z,16.10
2023-05-08T19:06:34.220Z,16.00
2023-05-08T19:09:01.636Z,16.10
2023-05-08T19:11:29.111Z,16.00
2023-05-08T19:13:56.745Z,16.00
2023-05-08T19:16:24.499Z,16.00
2023-05-08T19:18:52.187Z,16.00
2023-05-08T19:21:19.618Z,15.90
2023-05-08T19:23:47.112Z,15.90
2023-05-08T19:26:14.558Z,15.90
2023-05-08T19:28:42.083Z,15.90
2023-05-08T19:31:09.565Z,15.90
2023-05-08T19:33:36.996Z,15.90
2023-05-08T19:36:04.558Z,15.90
2023-05-08T19:38:32.048Z,15.80
2023-05-08T19:40:59.623Z,15.80
2023-05-08T19:43:27.081Z,15.80
2023-05-08T19:45:56.070Z,15.80
2023-05-08T19:48:24.563Z,15.80
2023-05-08T19:50:54.588Z,15.80
2023-05-08T19:53:23.398Z,15.80
2023-05-08T19:55:51.115Z,15.70
2023-05-08T19:58:18.931Z,15.80
2023-05-08T20:00:50.905Z,15.80
2023-05-08T20:03:19.073Z,15.70
2023-05-08T20:05:46.783Z,15.70
2023-05-08T20:08:14.174Z,15.70
2023-05-08T20:10:41.851Z,15.70
2023-05-08T20:13:09.318Z,15.70
2023-05-08T20:15:37.028Z,15.70
2023-05-08T20:18:04.693Z,15.70
2023-05-08T20:20:32.392Z,15.70
2023-05-08T20:22:59.811Z,15.70
2023-05-08T20:25:27.445Z,15.70
2023-05-08T20:27:55.290Z,15.60
2023-05-08T20:30:23.771Z,15.70
2023-05-08T20:32:51.588Z,15.60
2023-05-08T20:35:19.181Z,15.60
2023-05-08T20:37:47.795Z,15.60
2023-05-08T20:40:15.731Z,15.60
2023-05-08T20:42:43.358Z,15.60
2023-05-08T20:45:11.452Z,15.60
2023-05-08T20:47:39.309Z,15.60
2023-05-08T20:50:07.392Z,15.60
2023-05-08T20:52:35.929Z,15.60
2023-05-08T20:55:05.678Z,15.60
2023-05-08T20:57:33.095Z,15.60
2023-05-08T21:00:00.515Z,15.60
2023-05-08T21:02:27.946Z,15.50
2023-05-08T21:04:55.845Z,15.60
2023-05-08T21:07:23.436Z,15.50
2023-05-08T21:09:51.173Z,15.60
2023-05-08T21:12:19.281Z,15.60
2023-05-08T21:14:47.037Z,15.50
2023-05-08T21:17:14.588Z,15.60
2023-05-08T21:19:42.096Z,15.50
2023-05-08T21:22:09.559Z,15.60
2023-05-08T21:24:37.464Z,15.50
2023-05-08T21:27:04.966Z,15.50
2023-05-08T21:29:32.509Z,15.50
2023-05-08T21:32:00.015Z,15.50
2023-05-08T21:34:27.630Z,15.50
2023-05-08T21:36:55.002Z,15.50
2023-05-08T21:39:22.452Z,15.60
2023-05-08T21:41:49.912Z,15.60
2023-05-08T21:44:17.598Z,15.60
2023-05-08T21:46:45.489Z,15.60
2023-05-08T21:49:12.968Z,15.60
2023-05-08T21:51:40.403Z,15.50
2023-05-08T21:54:09.194Z,15.60
2023-05-08T21:56:37.797Z,15.60
2023-05-08T21:59:05.449Z,15.50
2023-05-08T22:01:33.374Z,15.60
2023-05-08T22:04:01.253Z,15.50
2023-05-08T22:06:28.990Z,15.50
2023-05-08T22:08:56.774Z,15.50
2023-05-08T22:11:24.230Z,15.50
2023-05-08T22:13:51.770Z,15.50
2023-05-08T22:16:19.180Z,15.60
2023-05-08T22:18:46.688Z,15.50
2023-05-08T22:21:14.079Z,15.50
2023-05-08T22:23:41.535Z,15.50
2023-05-08T22:26:08.986Z,15.60
2023-05-08T22:28:36.527Z,15.50
2023-05-08T22:31:04.197Z,15.60
2023-05-08T22:33:33.953Z,15.60
2023-05-08T22:36:01.371Z,15.60
2023-05-08T22:38:29.311Z,15.60
2023-05-08T22:41:00.047Z,15.60
2023-05-08T22:43:27.984Z,15.60
2023-05-08T22:45:56.800Z,15.60
2023-05-08T22:48:24.272Z,15.60
2023-05-08T22:50:51.712Z,15.60
2023-05-08T22:53:19.095Z,15.60
2023-05-08T22:55:46.525Z,15.60
2023-05-08T22:58:13.960Z,15.60
2023-05-08T23:00:41.408Z,15.60
2023-05-08T23:03:08.828Z,15.60
2023-05-08T23:05:36.367Z,15.60
2023-05-08T23:08:03.869Z,15.60
2023-05-08T23:10:31.237Z,15.60
2023-05-08T23:12:58.613Z,15.60
2023-05-08T23:15:26.083Z,15.60
2023-05-08T23:17:53.513Z,15.60
2023-05-08T23:20:20.963Z,15.70
2023-05-08T23:22:48.352Z,15.70
2023-05-08T23:25:16.621Z,15.70
2023-05-08T23:27:44.230Z,15.70
2023-05-08T23:30:16.774Z,15.70
2023-05-08T23:32:44.768Z,15.70
2023-05-08T23:35:12.606Z,15.70
2023-05-08T23:37:40.257Z,15.70
2023-05-08T23:40:08.410Z,15.70
2023-05-08T23:42:37.227Z,15.70
2023-05-08T23:45:06.519Z,15.70
2023-05-08T23:47:34.134Z,15.70
2023-05-08T23:50:01.951Z,15.70
2023-05-08T23:52:29.654Z,15.70
2023-05-08T23:54:57.181Z,15.70
2023-05-08T23:57:25.171Z,15.70
2023-05-08T23:59:53.023Z,15.70
